createdAt,value
2023-03-18T00:00:21.552Z,6.03
2023-03-18T00:02:49.180Z,4.97
2023-03-18T00:05:17.422Z,4.30
2023-03-18T00:07:44.974Z,4.93
2023-03-18T00:10:13.316Z,5.67
2023-03-18T00:12:40.851Z,4.50
2023-03-18T00:15:08.490Z,5.63
2023-03-18T00:17:36.062Z,6.47
2023-03-18T00:20:03.614Z,5.47
2023-03-18T00:22:31.139Z,5.93
2023-03-18T00:24:58.727Z,5.67
2023-03-18T00:27:26.261Z,4.83
2023-03-18T00:29:53.787Z,5.33
2023-03-18T00:32:21.376Z,5.20
2023-03-18T00:34:49.669Z,5.83
2023-03-18T00:37:17.204Z,6.20
2023-03-18T00:39:45.547Z,5.47
2023-03-18T00:42:13.072Z,5.77
2023-03-18T00:44:40.596Z,6.73
2023-03-18T00:47:08.958Z,6.37
2023-03-18T00:49:36.504Z,6.40
2023-03-18T00:52:04.047Z,6.73
2023-03-18T00:54:31.637Z,6.10
2023-03-18T00:56:59.969Z,6.30
2023-03-18T00:59:28.232Z,6.50
2023-03-18T01:01:55.892Z,6.40
2023-03-18T01:04:23.344Z,6.17
2023-03-18T01:06:50.877Z,7.75
2023-03-18T01:09:19.231Z,6.47
2023-03-18T01:11:46.764Z,6.70
2023-03-18T01:14:14.300Z,6.20
2023-03-18T01:16:41.884Z,6.83
2023-03-18T01:19:09.408Z,5.90
2023-03-18T01:21:36.949Z,5.90
2023-03-18T01:24:06.057Z,6.87
2023-03-18T01:26:33.567Z,6.07
2023-03-18T01:29:01.114Z,6.10
2023-03-18T01:31:29.005Z,5.33
2023-03-18T01:33:56.538Z,6.40
2023-03-18T01:36:24.064Z,6.07
2023-03-18T01:38:51.629Z,6.10
2023-03-18T01:41:19.175Z,6.03
2023-03-18T01:43:47.530Z,6.03
2023-03-18T01:46:37.483Z,6.07
2023-03-18T01:49:05.000Z,5.77
2023-03-18T01:51:33.320Z,5.60
2023-03-18T01:54:00.896Z,5.87
2023-03-18T01:56:28.435Z,5.80
2023-03-18T01:58:55.965Z,6.90
2023-03-18T02:01:32.801Z,6.40
2023-03-18T02:04:00.225Z,6.30
2023-03-18T02:06:27.749Z,5.83
2023-03-18T02:08:55.321Z,6.23
2023-03-18T02:11:22.855Z,5.67
2023-03-18T02:13:50.406Z,7.73
2023-03-18T02:16:25.058Z,7.10
2023-03-18T02:18:52.620Z,7.70
2023-03-18T02:21:23.482Z,7.10
2023-03-18T02:24:06.148Z,6.90
2023-03-18T02:26:34.527Z,6.87
2023-03-18T02:29:02.071Z,6.80
2023-03-18T02:31:29.624Z,6.40
2023-03-18T02:33:57.164Z,6.10
2023-03-18T02:36:30.325Z,5.70
2023-03-18T02:38:57.872Z,6.50
2023-03-18T02:41:25.408Z,6.43
2023-03-18T02:43:53.767Z,5.77
2023-03-18T02:46:24.032Z,6.77
2023-03-18T02:48:52.306Z,6.03
2023-03-18T02:51:19.848Z,8.07
2023-03-18T02:53:47.403Z,7.00
2023-03-18T02:56:15.707Z,6.50
2023-03-18T02:58:43.232Z,6.87
2023-03-18T03:01:11.586Z,6.47
2023-03-18T03:03:39.154Z,6.13
2023-03-18T03:06:07.430Z,6.67
2023-03-18T03:08:34.957Z,6.90
2023-03-18T03:11:02.483Z,6.90
2023-03-18T03:13:30.030Z,6.93
2023-03-18T03:15:58.414Z,7.87
2023-03-18T03:18:25.884Z,6.93
2023-03-18T03:20:53.400Z,6.57
2023-03-18T03:23:20.955Z,7.20
2023-03-18T03:25:48.472Z,7.23
2023-03-18T03:28:16.109Z,9.35
2023-03-18T03:30:44.502Z,7.90
2023-03-18T03:33:12.002Z,7.87
2023-03-18T03:35:39.637Z,8.33
2023-03-18T03:38:07.093Z,7.70
2023-03-18T03:40:34.615Z,8.00
2023-03-18T03:43:02.920Z,6.80
2023-03-18T03:45:30.511Z,7.77
2023-03-18T03:47:58.028Z,7.37
2023-03-18T03:50:25.586Z,7.67
2023-03-18T03:52:53.132Z,7.47
2023-03-18T03:55:21.432Z,7.83
2023-03-18T03:57:48.961Z,7.23
2023-03-18T04:00:17.541Z,8.00
2023-03-18T04:02:45.981Z,7.47
2023-03-18T04:05:13.416Z,7.40
2023-03-18T04:07:41.018Z,7.53
2023-03-18T04:10:08.543Z,7.60
2023-03-18T04:12:36.074Z,9.30
2023-03-18T04:15:03.670Z,8.13
2023-03-18T04:17:31.188Z,7.73
2023-03-18T04:19:58.738Z,7.70
2023-03-18T04:22:27.044Z,7.67
2023-03-18T04:24:54.567Z,7.70
2023-03-18T04:27:22.862Z,7.83
2023-03-18T04:29:50.489Z,7.43
2023-03-18T04:32:18.000Z,8.10
2023-03-18T04:34:45.564Z,7.60
2023-03-18T04:37:13.533Z,7.97
2023-03-18T04:39:41.055Z,7.47
2023-03-18T04:42:08.594Z,8.20
2023-03-18T04:44:36.904Z,7.10
2023-03-18T04:47:04.428Z,7.57
2023-03-18T04:49:32.731Z,7.67
2023-03-18T04:52:01.065Z,8.10
2023-03-18T04:54:28.624Z,9.10
2023-03-18T04:56:56.173Z,10.65
2023-03-18T04:59:23.715Z,8.93
2023-03-18T05:01:51.252Z,8.50
2023-03-18T05:04:18.821Z,9.10
2023-03-18T05:06:47.051Z,8.10
2023-03-18T05:09:14.584Z,8.07
2023-03-18T05:11:42.107Z,8.90
2023-03-18T05:14:09.695Z,9.40
2023-03-18T05:16:37.293Z,8.90
2023-03-18T05:19:04.766Z,8.50
2023-03-18T05:21:33.118Z,8.33
2023-03-18T05:24:00.675Z,8.87
2023-03-18T05:26:28.217Z,8.87
2023-03-18T05:28:55.788Z,10.82
2023-03-18T05:31:23.374Z,9.17
2023-03-18T05:33:50.828Z,8.47
2023-03-18T05:36:19.213Z,8.80
2023-03-18T05:38:47.502Z,9.50
2023-03-18T05:41:15.052Z,8.33
2023-03-18T05:43:43.754Z,9.03
2023-03-18T05:46:11.357Z,8.67
2023-03-18T05:48:39.584Z,8.70
2023-03-18T05:51:07.978Z,9.13
2023-03-18T05:53:35.498Z,9.80
2023-03-18T05:56:03.797Z,9.20
2023-03-18T05:58:31.455Z,8.60
2023-03-18T06:00:58.911Z,8.63
2023-03-18T06:03:27.255Z,8.37
2023-03-18T06:05:54.776Z,9.27
2023-03-18T06:08:22.323Z,8.47
2023-03-18T06:10:50.596Z,8.60
2023-03-18T06:13:18.175Z,8.60
2023-03-18T06:15:47.560Z,8.33
2023-03-18T06:18:13.227Z,7.97
2023-03-18T06:20:40.802Z,7.87
2023-03-18T06:23:09.108Z,7.93
2023-03-18T06:25:37.398Z,7.87
2023-03-18T06:28:04.971Z,8.20
2023-03-18T06:30:32.501Z,7.57
2023-03-18T06:33:00.046Z,7.87
2023-03-18T06:35:27.597Z,8.03
2023-03-18T06:37:55.893Z,7.43
2023-03-18T06:40:23.393Z,7.03
2023-03-18T06:42:50.960Z,7.90
2023-03-18T06:45:18.510Z,7.73
2023-03-18T06:47:46.060Z,9.45
2023-03-18T06:50:13.679Z,10.23
2023-03-18T06:52:41.165Z,8.00
2023-03-18T06:55:08.762Z,8.17
2023-03-18T06:57:36.346Z,7.83
2023-03-18T07:00:03.914Z,7.27
2023-03-18T07:02:32.194Z,8.73
2023-03-18T07:04:59.756Z,7.50
2023-03-18T07:07:27.285Z,5.80
2023-03-18T07:09:55.570Z,6.43
2023-03-18T07:12:23.905Z,6.70
2023-03-18T07:14:51.430Z,6.63
2023-03-18T07:17:18.967Z,7.55
2023-03-18T07:19:47.566Z,6.60
2023-03-18T07:22:15.094Z,5.63
2023-03-18T07:24:42.641Z,6.17
2023-03-18T07:27:10.223Z,5.93
2023-03-18T07:29:37.724Z,6.00
2023-03-18T07:32:05.315Z,6.13
2023-03-18T07:34:33.442Z,5.77
2023-03-18T07:37:00.970Z,6.20
2023-03-18T07:39:28.481Z,5.77
2023-03-18T07:41:56.043Z,4.60
2023-03-18T07:44:23.578Z,4.50
2023-03-18T07:46:51.115Z,4.73
2023-03-18T07:49:19.489Z,5.20
2023-03-18T07:51:47.800Z,4.43
2023-03-18T07:54:15.323Z,4.23
2023-03-18T07:56:43.672Z,3.93
2023-03-18T07:59:11.233Z,4.97
2023-03-18T08:01:38.753Z,4.70
2023-03-18T08:04:06.385Z,3.97
2023-03-18T08:06:33.869Z,4.77
2023-03-18T08:09:01.392Z,3.97
2023-03-18T08:11:29.765Z,4.80
2023-03-18T08:13:58.065Z,4.27
2023-03-18T08:16:25.618Z,3.00
2023-03-18T08:18:53.179Z,4.10
2023-03-18T08:21:21.475Z,3.47
2023-03-18T08:23:49.004Z,3.37
2023-03-18T08:26:17.333Z,2.67
2023-03-18T08:28:44.892Z,3.07
2023-03-18T08:31:12.422Z,2.77
2023-03-18T08:33:40.751Z,2.60
2023-03-18T08:36:08.558Z,2.97
2023-03-18T08:38:36.026Z,2.37
2023-03-18T08:41:04.638Z,2.30
2023-03-18T08:43:32.171Z,2.70
2023-03-18T08:45:59.732Z,3.00
2023-03-18T08:48:28.044Z,3.00
2023-03-18T08:50:55.579Z,2.33
2023-03-18T08:53:23.098Z,2.57
2023-03-18T08:55:51.454Z,2.20
2023-03-18T08:58:18.982Z,2.63
2023-03-18T09:00:46.557Z,2.80
2023-03-18T09:03:14.280Z,2.00
2023-03-18T09:05:41.748Z,2.10
2023-03-18T09:08:09.277Z,2.17
2023-03-18T09:10:37.676Z,2.40
2023-03-18T09:13:05.145Z,2.10
2023-03-18T09:15:32.844Z,3.17
2023-03-18T09:18:11.556Z,2.57
2023-03-18T09:20:28.923Z,2.97
2023-03-18T09:22:56.403Z,2.60
2023-03-18T09:25:24.787Z,2.60
2023-03-18T09:27:52.301Z,2.80
2023-03-18T09:30:20.600Z,2.27
2023-03-18T09:32:48.540Z,1.90
2023-03-18T09:35:16.010Z,2.13
2023-03-18T09:37:43.562Z,2.33
2023-03-18T09:40:12.117Z,2.07
2023-03-18T09:42:45.592Z,2.70
2023-03-18T09:45:25.117Z,2.50
2023-03-18T09:48:01.413Z,5.57
2023-03-18T09:50:47.448Z,4.47
2023-03-18T09:53:20.381Z,2.55
2023-03-18T09:55:47.935Z,2.80
2023-03-18T09:58:21.710Z,9.18
2023-03-18T10:00:49.286Z,3.80
2023-03-18T10:03:23.335Z,2.80
2023-03-18T10:05:50.880Z,2.77
2023-03-18T10:08:21.085Z,2.13
2023-03-18T10:10:48.617Z,2.33
2023-03-18T10:13:21.709Z,1.93
2023-03-18T10:15:51.706Z,2.30
2023-03-18T10:18:19.219Z,3.28
2023-03-18T10:20:56.247Z,3.70
2023-03-18T10:23:57.709Z,5.90
2023-03-18T10:26:28.544Z,3.93
2023-03-18T10:29:02.337Z,2.83
2023-03-18T10:31:36.233Z,2.53
2023-03-18T10:34:06.683Z,3.83
2023-03-18T10:36:55.981Z,5.00
2023-03-18T10:39:23.855Z,4.60
2023-03-18T10:41:52.195Z,5.50
2023-03-18T10:44:19.699Z,13.73
2023-03-18T10:46:47.376Z,4.00
2023-03-18T10:49:17.833Z,3.10
2023-03-18T10:51:49.603Z,2.37
2023-03-18T10:54:38.418Z,2.03
2023-03-18T10:57:06.050Z,2.40
2023-03-18T10:59:33.585Z,2.27
2023-03-18T11:02:06.740Z,2.80
2023-03-18T11:04:36.974Z,2.83
2023-03-18T11:07:05.278Z,2.60
2023-03-18T11:09:35.554Z,2.30
2023-03-18T11:12:19.209Z,2.50
2023-03-18T11:14:48.477Z,2.73
2023-03-18T11:17:18.681Z,2.30
2023-03-18T11:19:46.250Z,2.30
2023-03-18T11:22:13.810Z,2.20
2023-03-18T11:24:43.879Z,2.33
2023-03-18T11:27:15.121Z,2.33
2023-03-18T11:29:45.628Z,2.30
2023-03-18T11:32:29.266Z,2.50
2023-03-18T11:34:59.180Z,2.23
2023-03-18T11:37:32.792Z,2.50
2023-03-18T11:40:06.083Z,2.50
2023-03-18T11:42:34.380Z,2.42
2023-03-18T11:45:02.052Z,2.30
2023-03-18T11:47:29.570Z,2.33
2023-03-18T11:49:57.125Z,2.00
2023-03-18T11:52:43.683Z,2.43
2023-03-18T11:55:19.662Z,2.20
2023-03-18T11:58:24.365Z,2.50
2023-03-18T12:01:00.741Z,2.47
2023-03-18T12:03:52.791Z,2.03
2023-03-18T12:06:20.358Z,2.40
2023-03-18T12:08:50.567Z,1.93
2023-03-18T12:11:23.795Z,2.23
2023-03-18T12:13:54.546Z,2.27
2023-03-18T12:16:29.133Z,2.60
2023-03-18T12:19:20.913Z,2.43
2023-03-18T12:22:13.261Z,2.37
2023-03-18T12:24:43.731Z,2.63
2023-03-18T12:27:16.806Z,1.87
2023-03-18T12:30:11.937Z,2.30
2023-03-18T12:32:42.211Z,2.50
2023-03-18T12:35:29.169Z,2.77
2023-03-18T12:38:21.590Z,2.47
2023-03-18T12:41:17.000Z,2.20
2023-03-18T12:44:12.094Z,2.20
2023-03-18T12:46:51.560Z,2.83
2023-03-18T12:49:24.484Z,2.90
2023-03-18T12:51:55.583Z,2.50
2023-03-18T12:54:25.796Z,2.30
2023-03-18T12:56:53.315Z,2.10
2023-03-18T12:59:26.551Z,2.30
2023-03-18T13:01:57.029Z,2.23
2023-03-18T13:04:24.546Z,2.72
2023-03-18T13:06:54.970Z,2.80
2023-03-18T13:09:28.413Z,2.53
2023-03-18T13:12:04.779Z,2.17
2023-03-18T13:14:47.120Z,2.20
2023-03-18T13:17:14.965Z,2.43
2023-03-18T13:19:42.497Z,2.00
2023-03-18T13:22:28.610Z,2.47
2023-03-18T13:25:04.618Z,2.50
2023-03-18T13:28:05.620Z,2.30
2023-03-18T13:30:36.114Z,1.87
2023-03-18T13:33:12.278Z,1.83
2023-03-18T13:35:58.234Z,1.90
2023-03-18T13:38:43.672Z,1.93
2023-03-18T13:41:47.754Z,2.00
2023-03-18T13:44:23.399Z,2.10
2023-03-18T13:46:51.662Z,1.80
2023-03-18T13:49:19.390Z,2.00
2023-03-18T13:51:50.616Z,2.27
2023-03-18T13:54:18.156Z,1.90
2023-03-18T13:56:45.692Z,1.70
2023-03-18T13:59:35.348Z,1.70
2023-03-18T14:02:24.207Z,1.77
2023-03-18T14:04:51.748Z,2.53
2023-03-18T14:07:22.202Z,2.37
2023-03-18T14:10:17.973Z,1.30
2023-03-18T14:12:30.246Z,1.40
2023-03-18T14:14:58.572Z,1.27
2023-03-18T14:17:31.808Z,1.67
2023-03-18T14:19:59.338Z,1.07
2023-03-18T14:22:26.870Z,1.33
2023-03-18T14:25:19.672Z,1.27
2023-03-18T14:27:47.162Z,1.27
2023-03-18T14:30:33.110Z,1.17
2023-03-18T14:33:00.698Z,1.20
2023-03-18T14:35:28.287Z,1.00
2023-03-18T14:38:17.139Z,1.10
2023-03-18T14:40:44.679Z,1.17
2023-03-18T14:43:14.736Z,1.30
2023-03-18T14:45:45.073Z,1.47
2023-03-18T14:48:21.619Z,0.97
2023-03-18T14:50:51.902Z,1.20
2023-03-18T14:53:38.095Z,1.00
2023-03-18T14:56:05.679Z,0.80
2023-03-18T14:58:33.228Z,1.00
2023-03-18T15:01:11.252Z,1.07
2023-03-18T15:03:38.775Z,0.70
2023-03-18T15:06:07.077Z,0.77
2023-03-18T15:08:47.358Z,0.63
2023-03-18T15:11:07.898Z,0.70
2023-03-18T15:13:35.398Z,0.70
2023-03-18T15:16:05.891Z,0.90
2023-03-18T15:18:36.002Z,0.70
2023-03-18T15:21:03.533Z,0.70
2023-03-18T15:23:36.804Z,0.73
2023-03-18T15:26:04.614Z,0.80
2023-03-18T15:28:32.022Z,0.70
2023-03-18T15:30:59.573Z,0.60
2023-03-18T15:33:30.061Z,0.77
2023-03-18T15:35:58.071Z,1.07
2023-03-18T15:38:28.536Z,0.83
2023-03-18T15:40:56.101Z,0.80
2023-03-18T15:43:29.316Z,1.15
2023-03-18T15:45:57.289Z,7.63
2023-03-18T15:48:27.670Z,4.17
2023-03-18T15:50:55.210Z,29.27
2023-03-18T15:53:26.558Z,0.97
2023-03-18T15:55:54.081Z,0.70
2023-03-18T15:58:25.098Z,0.80
2023-03-18T16:00:52.697Z,0.80
2023-03-18T16:03:20.283Z,5.65
2023-03-18T16:05:47.704Z,1.10
2023-03-18T16:08:16.063Z,1.03
2023-03-18T16:10:45.682Z,0.60
2023-03-18T16:13:13.200Z,0.60
2023-03-18T16:15:40.774Z,0.83
2023-03-18T16:18:08.320Z,0.73
2023-03-18T16:20:35.854Z,0.73
2023-03-18T16:23:03.469Z,0.80
2023-03-18T16:25:31.219Z,0.93
2023-03-18T16:27:58.540Z,0.90
2023-03-18T16:30:27.100Z,0.83
2023-03-18T16:32:54.654Z,0.90
2023-03-18T16:35:22.176Z,0.50
2023-03-18T16:37:49.761Z,0.97
2023-03-18T16:40:18.046Z,0.90
2023-03-18T16:42:46.345Z,0.80
2023-03-18T16:45:16.630Z,0.80
2023-03-18T16:47:44.928Z,0.97
2023-03-18T16:50:21.809Z,1.07
2023-03-18T16:52:49.344Z,0.83
2023-03-18T16:55:17.656Z,1.00
2023-03-18T16:57:48.693Z,0.77
2023-03-18T17:00:16.298Z,1.00
2023-03-18T17:02:43.836Z,0.87
2023-03-18T17:05:11.416Z,1.08
2023-03-18T17:07:38.952Z,0.93
2023-03-18T17:10:06.621Z,0.90
2023-03-18T17:12:34.195Z,0.87
2023-03-18T17:15:01.726Z,1.05
2023-03-18T17:17:29.266Z,1.10
2023-03-18T17:19:57.650Z,0.90
2023-03-18T17:22:25.162Z,1.30
2023-03-18T17:24:52.699Z,1.00
2023-03-18T17:27:26.877Z,1.00
2023-03-18T17:29:54.396Z,1.42
2023-03-18T17:32:21.940Z,2.20
2023-03-18T17:34:49.513Z,2.37
2023-03-18T17:37:17.050Z,1.90
2023-03-18T17:39:44.576Z,1.60
2023-03-18T17:42:21.244Z,1.80
2023-03-18T17:44:48.768Z,2.30
2023-03-18T17:47:17.093Z,2.10
2023-03-18T17:49:44.654Z,2.10
2023-03-18T17:52:12.299Z,2.33
2023-03-18T17:54:39.828Z,1.40
2023-03-18T17:57:08.992Z,2.53
2023-03-18T17:59:36.476Z,2.67
2023-03-18T18:02:04.823Z,2.50
2023-03-18T18:04:32.365Z,1.67
2023-03-18T18:06:59.907Z,3.03
2023-03-18T18:09:27.436Z,2.80
2023-03-18T18:11:55.796Z,1.90
2023-03-18T18:14:23.333Z,2.50
2023-03-18T18:16:50.860Z,2.80
2023-03-18T18:19:19.184Z,2.27
2023-03-18T18:21:46.713Z,2.07
2023-03-18T18:24:23.215Z,2.50
2023-03-18T18:26:50.789Z,3.23
2023-03-18T18:29:21.823Z,2.80
2023-03-18T18:31:49.408Z,3.57
2023-03-18T18:34:16.955Z,4.50
2023-03-18T18:36:45.259Z,4.17
2023-03-18T18:39:12.785Z,4.50
2023-03-18T18:41:41.412Z,4.37
2023-03-18T18:44:08.927Z,3.60
2023-03-18T18:46:37.295Z,3.80
2023-03-18T18:49:05.640Z,2.90
2023-03-18T18:51:33.146Z,3.00
2023-03-18T18:54:01.448Z,3.70
2023-03-18T18:56:34.871Z,3.63
2023-03-18T18:59:02.422Z,3.60
2023-03-18T19:01:29.957Z,3.17
2023-03-18T19:03:57.632Z,3.73
2023-03-18T19:06:30.773Z,3.27
2023-03-18T19:09:01.041Z,3.37
2023-03-18T19:11:28.617Z,3.40
2023-03-18T19:13:56.144Z,3.10
2023-03-18T19:16:34.105Z,3.27
2023-03-18T19:19:01.615Z,3.10
2023-03-18T19:21:29.162Z,4.10
2023-03-18T19:23:57.512Z,4.77
2023-03-18T19:26:25.051Z,4.63
2023-03-18T19:28:58.904Z,3.77
2023-03-18T19:31:22.050Z,3.83
2023-03-18T19:33:52.024Z,4.80
2023-03-18T19:36:34.248Z,3.90
2023-03-18T19:39:01.793Z,3.70
2023-03-18T19:41:29.314Z,3.33
2023-03-18T19:44:05.516Z,3.60
2023-03-18T19:46:38.809Z,3.40
2023-03-18T19:49:18.401Z,3.40
2023-03-18T19:51:45.914Z,3.20
2023-03-18T19:54:31.956Z,4.07
2023-03-18T19:57:02.169Z,4.32
2023-03-18T19:59:37.432Z,3.93
2023-03-18T20:01:58.436Z,4.63
2023-03-18T20:04:26.021Z,5.67
2023-03-18T20:06:53.506Z,4.43
2023-03-18T20:09:21.844Z,5.00
2023-03-18T20:11:49.382Z,4.60
2023-03-18T20:14:25.464Z,4.30
2023-03-18T20:16:53.144Z,4.07
2023-03-18T20:19:20.604Z,5.22
2023-03-18T20:21:50.711Z,3.93
2023-03-18T20:24:18.648Z,4.62
2023-03-18T20:26:46.169Z,4.70
2023-03-18T20:29:17.467Z,4.23
2023-03-18T20:31:45.595Z,4.70
2023-03-18T20:34:13.108Z,4.70
2023-03-18T20:36:40.644Z,4.10
2023-03-18T20:39:08.206Z,4.30
2023-03-18T20:41:35.743Z,4.27
2023-03-18T20:44:03.267Z,3.80
2023-03-18T20:46:30.880Z,3.70
2023-03-18T20:48:59.145Z,3.93
2023-03-18T20:51:32.755Z,3.93
2023-03-18T20:54:00.369Z,4.53
2023-03-18T20:56:28.140Z,4.13
2023-03-18T20:58:56.448Z,4.67
2023-03-18T21:01:24.076Z,4.73
2023-03-18T21:03:51.614Z,3.97
2023-03-18T21:06:19.832Z,4.47
2023-03-18T21:08:47.434Z,3.27
2023-03-18T21:11:20.569Z,4.40
2023-03-18T21:13:48.881Z,3.37
2023-03-18T21:16:16.479Z,3.63
2023-03-18T21:18:43.966Z,4.90
2023-03-18T21:21:21.021Z,5.07
2023-03-18T21:23:48.553Z,4.03
2023-03-18T21:26:16.098Z,3.80
2023-03-18T21:28:43.660Z,3.03
2023-03-18T21:31:16.784Z,3.63
2023-03-18T21:33:44.305Z,3.63
2023-03-18T21:36:11.932Z,3.37
2023-03-18T21:38:39.411Z,4.10
2023-03-18T21:41:06.935Z,4.20
2023-03-18T21:43:35.607Z,3.70
2023-03-18T21:46:03.144Z,4.40
2023-03-18T21:48:30.656Z,4.20
2023-03-18T21:50:58.996Z,3.83
2023-03-18T21:53:26.551Z,5.00
2023-03-18T21:55:54.085Z,6.30
2023-03-18T21:58:22.451Z,8.17
2023-03-18T22:00:52.929Z,22.00
2023-03-18T22:03:20.475Z,17.00
2023-03-18T22:05:48.097Z,21.00
2023-03-18T22:08:15.613Z,17.93
2023-03-18T22:10:43.156Z,15.50
2023-03-18T22:13:16.884Z,10.80
2023-03-18T22:15:45.246Z,9.00
2023-03-18T22:18:12.721Z,7.93
2023-03-18T22:20:41.085Z,7.50
2023-03-18T22:23:20.700Z,7.57
2023-03-18T22:25:48.282Z,8.73
2023-03-18T22:28:15.804Z,8.03
2023-03-18T22:30:43.362Z,8.33
2023-03-18T22:33:19.751Z,6.27
2023-03-18T22:35:47.314Z,8.23
2023-03-18T22:38:14.823Z,7.83
2023-03-18T22:40:42.440Z,8.93
2023-03-18T22:43:18.680Z,7.40
2023-03-18T22:45:46.260Z,9.35
2023-03-18T22:48:13.792Z,7.40
2023-03-18T22:50:41.330Z,7.70
2023-03-18T22:53:09.712Z,6.80
2023-03-18T22:55:37.251Z,6.67
2023-03-18T22:58:04.781Z,6.63
2023-03-18T23:00:38.953Z,6.03
2023-03-18T23:03:18.666Z,6.10
2023-03-18T23:05:48.612Z,4.93
2023-03-18T23:08:16.152Z,5.60
2023-03-18T23:10:43.686Z,5.07
2023-03-18T23:13:13.920Z,5.50
2023-03-18T23:15:42.228Z,4.87
2023-03-18T23:18:12.413Z,5.63
2023-03-18T23:20:40.756Z,4.87
2023-03-18T23:23:08.306Z,4.80
2023-03-18T23:25:35.945Z,4.73
2023-03-18T23:28:03.415Z,4.37
2023-03-18T23:30:30.944Z,5.30
2023-03-18T23:32:58.521Z,4.87
2023-03-18T23:35:26.038Z,5.13
2023-03-18T23:37:54.358Z,5.07
2023-03-18T23:40:21.906Z,5.03
2023-03-18T23:42:49.480Z,4.70
2023-03-18T23:45:17.051Z,6.30
2023-03-18T23:47:44.552Z,5.73
2023-03-18T23:50:12.897Z,4.87
2023-03-18T23:52:40.426Z,5.50
2023-03-18T23:55:22.390Z,4.97
2023-03-18T23:57:36.356Z,5.30
